<?xml version="1.0" encoding="UTF-8" standalone="no" ?>
<gpx xmlns="http://www.topografix.com/GPX/1/1" xmlns:xsi="http://www.w3.org/2001/XMLSchema-instance" xsi:schemaLocation="http://www.topografix.com/GPX/1/1 http://www.topografix.com/GPX/1/1/gpx.xsd" version="1.1" creator="VisuGPX - https://www.visugpx.com">
  <metadata>
    <name>Au coeur du vignoble Saumur-Champigny</name>
    <desc><![CDATA[50min de Tours]]></desc>
  </metadata>
  <wpt lat="47.24111" lon="-0.02274">
    <ele>32</ele>
    <name><![CDATA[Parking près du camping municipal]]></name>
  </wpt>
  <wpt lat="47.24222" lon="-0.02719">
    <ele>33</ele>
    <name><![CDATA[Traversée de la D947]]></name>
  </wpt>
  <wpt lat="47.24353" lon="-0.03414">
    <ele>55</ele>
    <name><![CDATA[Chemin des Ruettes]]></name>
  </wpt>
  <wpt lat="47.24408" lon="-0.03701">
    <ele>67</ele>
    <name><![CDATA[Carrefour]]></name>
  </wpt>
  <wpt lat="47.24495" lon="-0.03918">
    <ele>62</ele>
    <name><![CDATA[À droite à la route]]></name>
  </wpt>
  <wpt lat="47.24548" lon="-0.0446">
    <ele>73</ele>
    <name><![CDATA[Chemin du Fer Aigu]]></name>
  </wpt>
  <wpt lat="47.24656" lon="-0.05301">
    <ele>92</ele>
    <name><![CDATA[Route de Champigny]]></name>
  </wpt>
  <wpt lat="47.24249" lon="-0.05764">
    <ele>64</ele>
    <name><![CDATA[Croisement du chemin de l'Angle Cher]]></name>
  </wpt>
  <wpt lat="47.23286" lon="-0.05767">
    <ele>66</ele>
    <name><![CDATA[Chemin du Sourd à droite]]></name>
  </wpt>
  <wpt lat="47.23242" lon="-0.05007">
    <ele>73</ele>
    <name><![CDATA[Chemin à gauche]]></name>
  </wpt>
  <wpt lat="47.23418" lon="-0.04506">
    <ele>81</ele>
    <name><![CDATA[Bifurcaction à droite]]></name>
  </wpt>
  <wpt lat="47.22692" lon="-0.04596">
    <ele>50</ele>
    <name><![CDATA[Croix de Chaintre]]></name>
  </wpt>
  <wpt lat="47.22465" lon="-0.04298">
    <ele>54</ele>
    <name><![CDATA[La Rocardière]]></name>
  </wpt>
  <wpt lat="47.22591" lon="-0.03142">
    <ele>76</ele>
    <name><![CDATA[Traversée de la D145]]></name>
  </wpt>
  <wpt lat="47.23468" lon="-0.03055">
    <ele>83</ele>
    <name><![CDATA[Route]]></name>
  </wpt>
  <wpt lat="47.2412" lon="-0.02419">
    <ele>38</ele>
    <name><![CDATA[Route de Montsoreau]]></name>
  </wpt>
  <wpt lat="47.24108" lon="-0.02275">
    <ele>32</ele>
    <name><![CDATA[Parking près du camping municipal]]></name>
  </wpt>
  <trk>
    <name><![CDATA[Au cœur du vignoble Saumur-Champigny]]></name>
    <trkseg>
      <trkpt lat="47.24111" lon="-0.02274">
        <ele>32</ele>
        <time>2021-02-20T11:48:05+01:00</time>
      </trkpt>
      <trkpt lat="47.24108" lon="-0.02258">
        <ele>32</ele>
        <time>2021-02-20T11:48:10+01:00</time>
      </trkpt>
      <trkpt lat="47.24119" lon="-0.02258">
        <ele>31</ele>
        <time>2021-02-20T11:48:15+01:00</time>
      </trkpt>
      <trkpt lat="47.24128" lon="-0.02251">
        <ele>31</ele>
        <time>2021-02-20T11:48:20+01:00</time>
      </trkpt>
      <trkpt lat="47.24133" lon="-0.02247">
        <ele>31</ele>
        <time>2021-02-20T11:48:25+01:00</time>
      </trkpt>
      <trkpt lat="47.24136" lon="-0.02236">
        <ele>31</ele>
        <time>2021-02-20T11:48:30+01:00</time>
      </trkpt>
      <trkpt lat="47.2414" lon="-0.02225">
        <ele>30</ele>
        <time>2021-02-20T11:48:35+01:00</time>
      </trkpt>
      <trkpt lat="47.24147" lon="-0.0221">
        <ele>30</ele>
        <time>2021-02-20T11:48:40+01:00</time>
      </trkpt>
      <trkpt lat="47.24152" lon="-0.022">
        <ele>30</ele>
        <time>2021-02-20T11:48:45+01:00</time>
      </trkpt>
      <trkpt lat="47.24161" lon="-0.02191">
        <ele>30</ele>
        <time>2021-02-20T11:48:50+01:00</time>
      </trkpt>
      <trkpt lat="47.24172" lon="-0.02185">
        <ele>30</ele>
        <time>2021-02-20T11:48:55+01:00</time>
      </trkpt>
      <trkpt lat="47.24186" lon="-0.0218">
        <ele>29</ele>
        <time>2021-02-20T11:49:00+01:00</time>
      </trkpt>
      <trkpt lat="47.24198" lon="-0.02196">
        <ele>29</ele>
        <time>2021-02-20T11:49:05+01:00</time>
      </trkpt>
      <trkpt lat="47.24202" lon="-0.02197">
        <ele>29</ele>
        <time>2021-02-20T11:49:10+01:00</time>
      </trkpt>
      <trkpt lat="47.24215" lon="-0.02218">
        <ele>29</ele>
        <time>2021-02-20T11:49:15+01:00</time>
      </trkpt>
      <trkpt lat="47.24224" lon="-0.02242">
        <ele>29</ele>
        <time>2021-02-20T11:49:20+01:00</time>
      </trkpt>
      <trkpt lat="47.24242" lon="-0.02302">
        <ele>29</ele>
        <time>2021-02-20T11:49:25+01:00</time>
      </trkpt>
      <trkpt lat="47.24265" lon="-0.02386">
        <ele>30</ele>
        <time>2021-02-20T11:49:30+01:00</time>
      </trkpt>
      <trkpt lat="47.24284" lon="-0.02459">
        <ele>29</ele>
        <time>2021-02-20T11:49:35+01:00</time>
      </trkpt>
      <trkpt lat="47.24316" lon="-0.02547">
        <ele>29</ele>
        <time>2021-02-20T11:49:40+01:00</time>
      </trkpt>
      <trkpt lat="47.24352" lon="-0.02649">
        <ele>29</ele>
        <time>2021-02-20T11:49:45+01:00</time>
      </trkpt>
      <trkpt lat="47.24387" lon="-0.0274">
        <ele>27</ele>
        <time>2021-02-20T11:49:50+01:00</time>
      </trkpt>
      <trkpt lat="47.24396" lon="-0.02781">
        <ele>27</ele>
        <time>2021-02-20T11:49:55+01:00</time>
      </trkpt>
      <trkpt lat="47.24398" lon="-0.02813">
        <ele>28</ele>
        <time>2021-02-20T11:50:00+01:00</time>
      </trkpt>
      <trkpt lat="47.2437" lon="-0.02785">
        <ele>28</ele>
        <time>2021-02-20T11:50:05+01:00</time>
      </trkpt>
      <trkpt lat="47.24346" lon="-0.02746">
        <ele>28</ele>
        <time>2021-02-20T11:50:10+01:00</time>
      </trkpt>
      <trkpt lat="47.24337" lon="-0.02739">
        <ele>28</ele>
        <time>2021-02-20T11:50:15+01:00</time>
      </trkpt>
      <trkpt lat="47.2432" lon="-0.02728">
        <ele>28</ele>
        <time>2021-02-20T11:50:20+01:00</time>
      </trkpt>
      <trkpt lat="47.24279" lon="-0.027">
        <ele>29</ele>
        <time>2021-02-20T11:50:25+01:00</time>
      </trkpt>
      <trkpt lat="47.24261" lon="-0.027">
        <ele>29</ele>
        <time>2021-02-20T11:50:30+01:00</time>
      </trkpt>
      <trkpt lat="47.24239" lon="-0.0271">
        <ele>31</ele>
        <time>2021-02-20T11:50:35+01:00</time>
      </trkpt>
      <trkpt lat="47.24222" lon="-0.02719">
        <ele>33</ele>
        <time>2021-02-20T11:50:40+01:00</time>
      </trkpt>
      <trkpt lat="47.24215" lon="-0.02742">
        <ele>34</ele>
        <time>2021-02-20T11:50:45+01:00</time>
      </trkpt>
      <trkpt lat="47.24214" lon="-0.02745">
        <ele>34</ele>
        <time>2021-02-20T11:50:50+01:00</time>
      </trkpt>
      <trkpt lat="47.24205" lon="-0.02777">
        <ele>36</ele>
        <time>2021-02-20T11:50:55+01:00</time>
      </trkpt>
      <trkpt lat="47.24195" lon="-0.02801">
        <ele>38</ele>
        <time>2021-02-20T11:51:00+01:00</time>
      </trkpt>
      <trkpt lat="47.2419" lon="-0.02814">
        <ele>38</ele>
        <time>2021-02-20T11:51:05+01:00</time>
      </trkpt>
      <trkpt lat="47.2419" lon="-0.02822">
        <ele>38</ele>
        <time>2021-02-20T11:51:10+01:00</time>
      </trkpt>
      <trkpt lat="47.2419" lon="-0.02827">
        <ele>39</ele>
        <time>2021-02-20T11:51:15+01:00</time>
      </trkpt>
      <trkpt lat="47.24194" lon="-0.02887">
        <ele>41</ele>
        <time>2021-02-20T11:51:20+01:00</time>
      </trkpt>
      <trkpt lat="47.2419" lon="-0.02908">
        <ele>42</ele>
        <time>2021-02-20T11:51:25+01:00</time>
      </trkpt>
      <trkpt lat="47.24178" lon="-0.02947">
        <ele>45</ele>
        <time>2021-02-20T11:51:30+01:00</time>
      </trkpt>
      <trkpt lat="47.24171" lon="-0.02971">
        <ele>47</ele>
        <time>2021-02-20T11:51:35+01:00</time>
      </trkpt>
      <trkpt lat="47.24165" lon="-0.02983">
        <ele>48</ele>
        <time>2021-02-20T11:51:40+01:00</time>
      </trkpt>
      <trkpt lat="47.24151" lon="-0.03021">
        <ele>50</ele>
        <time>2021-02-20T11:51:45+01:00</time>
      </trkpt>
      <trkpt lat="47.24151" lon="-0.03023">
        <ele>51</ele>
        <time>2021-02-20T11:51:50+01:00</time>
      </trkpt>
      <trkpt lat="47.24148" lon="-0.03032">
        <ele>51</ele>
        <time>2021-02-20T11:51:55+01:00</time>
      </trkpt>
      <trkpt lat="47.24145" lon="-0.03064">
        <ele>52</ele>
        <time>2021-02-20T11:52:00+01:00</time>
      </trkpt>
      <trkpt lat="47.24145" lon="-0.0309">
        <ele>54</ele>
        <time>2021-02-20T11:52:05+01:00</time>
      </trkpt>
      <trkpt lat="47.24149" lon="-0.03129">
        <ele>56</ele>
        <time>2021-02-20T11:52:10+01:00</time>
      </trkpt>
      <trkpt lat="47.24142" lon="-0.03189">
        <ele>59</ele>
        <time>2021-02-20T11:52:15+01:00</time>
      </trkpt>
      <trkpt lat="47.24135" lon="-0.03235">
        <ele>61</ele>
        <time>2021-02-20T11:52:20+01:00</time>
      </trkpt>
      <trkpt lat="47.24131" lon="-0.03254">
        <ele>62</ele>
        <time>2021-02-20T11:52:25+01:00</time>
      </trkpt>
      <trkpt lat="47.24231" lon="-0.0314">
        <ele>56</ele>
        <time>2021-02-20T11:52:30+01:00</time>
      </trkpt>
      <trkpt lat="47.24235" lon="-0.03136">
        <ele>56</ele>
        <time>2021-02-20T11:52:35+01:00</time>
      </trkpt>
      <trkpt lat="47.24241" lon="-0.03131">
        <ele>55</ele>
        <time>2021-02-20T11:52:40+01:00</time>
      </trkpt>
      <trkpt lat="47.2425" lon="-0.03128">
        <ele>55</ele>
        <time>2021-02-20T11:52:45+01:00</time>
      </trkpt>
      <trkpt lat="47.24256" lon="-0.0313">
        <ele>54</ele>
        <time>2021-02-20T11:52:50+01:00</time>
      </trkpt>
      <trkpt lat="47.24264" lon="-0.03143">
        <ele>53</ele>
        <time>2021-02-20T11:52:55+01:00</time>
      </trkpt>
      <trkpt lat="47.24275" lon="-0.03167">
        <ele>52</ele>
        <time>2021-02-20T11:53:00+01:00</time>
      </trkpt>
      <trkpt lat="47.24279" lon="-0.03178">
        <ele>52</ele>
        <time>2021-02-20T11:53:05+01:00</time>
      </trkpt>
      <trkpt lat="47.24281" lon="-0.03185">
        <ele>52</ele>
        <time>2021-02-20T11:53:10+01:00</time>
      </trkpt>
      <trkpt lat="47.24284" lon="-0.03192">
        <ele>51</ele>
        <time>2021-02-20T11:53:15+01:00</time>
      </trkpt>
      <trkpt lat="47.24288" lon="-0.03203">
        <ele>51</ele>
        <time>2021-02-20T11:53:20+01:00</time>
      </trkpt>
      <trkpt lat="47.24289" lon="-0.03208">
        <ele>51</ele>
        <time>2021-02-20T11:53:25+01:00</time>
      </trkpt>
      <trkpt lat="47.24289" lon="-0.03213">
        <ele>51</ele>
        <time>2021-02-20T11:53:30+01:00</time>
      </trkpt>
      <trkpt lat="47.24288" lon="-0.03217">
        <ele>52</ele>
        <time>2021-02-20T11:53:35+01:00</time>
      </trkpt>
      <trkpt lat="47.24284" lon="-0.03228">
        <ele>53</ele>
        <time>2021-02-20T11:53:40+01:00</time>
      </trkpt>
      <trkpt lat="47.24283" lon="-0.03232">
        <ele>54</ele>
        <time>2021-02-20T11:53:45+01:00</time>
      </trkpt>
      <trkpt lat="47.24284" lon="-0.03235">
        <ele>53</ele>
        <time>2021-02-20T11:53:50+01:00</time>
      </trkpt>
      <trkpt lat="47.24292" lon="-0.03246">
        <ele>53</ele>
        <time>2021-02-20T11:53:55+01:00</time>
      </trkpt>
      <trkpt lat="47.24294" lon="-0.03251">
        <ele>53</ele>
        <time>2021-02-20T11:54:00+01:00</time>
      </trkpt>
      <trkpt lat="47.24299" lon="-0.03265">
        <ele>53</ele>
        <time>2021-02-20T11:54:05+01:00</time>
      </trkpt>
      <trkpt lat="47.24299" lon="-0.03268">
        <ele>53</ele>
        <time>2021-02-20T11:54:10+01:00</time>
      </trkpt>
      <trkpt lat="47.243" lon="-0.03275">
        <ele>53</ele>
        <time>2021-02-20T11:54:15+01:00</time>
      </trkpt>
      <trkpt lat="47.24303" lon="-0.03278">
        <ele>53</ele>
        <time>2021-02-20T11:54:20+01:00</time>
      </trkpt>
      <trkpt lat="47.24307" lon="-0.03281">
        <ele>53</ele>
        <time>2021-02-20T11:54:25+01:00</time>
      </trkpt>
      <trkpt lat="47.24311" lon="-0.03286">
        <ele>52</ele>
        <time>2021-02-20T11:54:30+01:00</time>
      </trkpt>
      <trkpt lat="47.24315" lon="-0.0329">
        <ele>52</ele>
        <time>2021-02-20T11:54:35+01:00</time>
      </trkpt>
      <trkpt lat="47.24318" lon="-0.03295">
        <ele>52</ele>
        <time>2021-02-20T11:54:40+01:00</time>
      </trkpt>
      <trkpt lat="47.2432" lon="-0.03301">
        <ele>52</ele>
        <time>2021-02-20T11:54:45+01:00</time>
      </trkpt>
      <trkpt lat="47.24323" lon="-0.03313">
        <ele>53</ele>
        <time>2021-02-20T11:54:50+01:00</time>
      </trkpt>
      <trkpt lat="47.24324" lon="-0.03315">
        <ele>53</ele>
        <time>2021-02-20T11:54:55+01:00</time>
      </trkpt>
      <trkpt lat="47.24328" lon="-0.03321">
        <ele>53</ele>
        <time>2021-02-20T11:55:00+01:00</time>
      </trkpt>
      <trkpt lat="47.24331" lon="-0.03329">
        <ele>53</ele>
        <time>2021-02-20T11:55:05+01:00</time>
      </trkpt>
      <trkpt lat="47.24333" lon="-0.03334">
        <ele>53</ele>
        <time>2021-02-20T11:55:10+01:00</time>
      </trkpt>
      <trkpt lat="47.24335" lon="-0.03346">
        <ele>54</ele>
        <time>2021-02-20T11:55:15+01:00</time>
      </trkpt>
      <trkpt lat="47.24338" lon="-0.03356">
        <ele>54</ele>
        <time>2021-02-20T11:55:20+01:00</time>
      </trkpt>
      <trkpt lat="47.24342" lon="-0.0337">
        <ele>54</ele>
        <time>2021-02-20T11:55:25+01:00</time>
      </trkpt>
      <trkpt lat="47.24351" lon="-0.03407">
        <ele>55</ele>
        <time>2021-02-20T11:55:30+01:00</time>
      </trkpt>
      <trkpt lat="47.24353" lon="-0.03414">
        <ele>55</ele>
        <time>2021-02-20T11:55:35+01:00</time>
      </trkpt>
      <trkpt lat="47.24356" lon="-0.03428">
        <ele>55</ele>
        <time>2021-02-20T11:55:40+01:00</time>
      </trkpt>
      <trkpt lat="47.24359" lon="-0.03438">
        <ele>56</ele>
        <time>2021-02-20T11:55:45+01:00</time>
      </trkpt>
      <trkpt lat="47.24362" lon="-0.03449">
        <ele>56</ele>
        <time>2021-02-20T11:55:50+01:00</time>
      </trkpt>
      <trkpt lat="47.24363" lon="-0.03453">
        <ele>56</ele>
        <time>2021-02-20T11:55:55+01:00</time>
      </trkpt>
      <trkpt lat="47.24366" lon="-0.03463">
        <ele>56</ele>
        <time>2021-02-20T11:56:00+01:00</time>
      </trkpt>
      <trkpt lat="47.24373" lon="-0.03485">
        <ele>57</ele>
        <time>2021-02-20T11:56:05+01:00</time>
      </trkpt>
      <trkpt lat="47.24374" lon="-0.0349">
        <ele>57</ele>
        <time>2021-02-20T11:56:10+01:00</time>
      </trkpt>
      <trkpt lat="47.24377" lon="-0.03501">
        <ele>58</ele>
        <time>2021-02-20T11:56:15+01:00</time>
      </trkpt>
      <trkpt lat="47.24386" lon="-0.03529">
        <ele>59</ele>
        <time>2021-02-20T11:56:20+01:00</time>
      </trkpt>
      <trkpt lat="47.2439" lon="-0.03543">
        <ele>60</ele>
        <time>2021-02-20T11:56:25+01:00</time>
      </trkpt>
      <trkpt lat="47.24402" lon="-0.03565">
        <ele>60</ele>
        <time>2021-02-20T11:56:30+01:00</time>
      </trkpt>
      <trkpt lat="47.24409" lon="-0.03585">
        <ele>61</ele>
        <time>2021-02-20T11:56:35+01:00</time>
      </trkpt>
      <trkpt lat="47.24413" lon="-0.03603">
        <ele>62</ele>
        <time>2021-02-20T11:56:40+01:00</time>
      </trkpt>
      <trkpt lat="47.24409" lon="-0.03619">
        <ele>63</ele>
        <time>2021-02-20T11:56:45+01:00</time>
      </trkpt>
      <trkpt lat="47.24398" lon="-0.03632">
        <ele>66</ele>
        <time>2021-02-20T11:56:50+01:00</time>
      </trkpt>
      <trkpt lat="47.2439" lon="-0.03646">
        <ele>68</ele>
        <time>2021-02-20T11:56:55+01:00</time>
      </trkpt>
      <trkpt lat="47.24391" lon="-0.03664">
        <ele>68</ele>
        <time>2021-02-20T11:57:00+01:00</time>
      </trkpt>
      <trkpt lat="47.24394" lon="-0.03679">
        <ele>68</ele>
        <time>2021-02-20T11:57:05+01:00</time>
      </trkpt>
      <trkpt lat="47.24408" lon="-0.03701">
        <ele>67</ele>
        <time>2021-02-20T11:57:10+01:00</time>
      </trkpt>
      <trkpt lat="47.24425" lon="-0.03742">
        <ele>65</ele>
        <time>2021-02-20T11:57:15+01:00</time>
      </trkpt>
      <trkpt lat="47.24431" lon="-0.03757">
        <ele>65</ele>
        <time>2021-02-20T11:57:20+01:00</time>
      </trkpt>
      <trkpt lat="47.24441" lon="-0.03774">
        <ele>64</ele>
        <time>2021-02-20T11:57:25+01:00</time>
      </trkpt>
      <trkpt lat="47.24446" lon="-0.03782">
        <ele>63</ele>
        <time>2021-02-20T11:57:30+01:00</time>
      </trkpt>
      <trkpt lat="47.24449" lon="-0.03787">
        <ele>63</ele>
        <time>2021-02-20T11:57:35+01:00</time>
      </trkpt>
      <trkpt lat="47.24452" lon="-0.03794">
        <ele>63</ele>
        <time>2021-02-20T11:57:40+01:00</time>
      </trkpt>
      <trkpt lat="47.24454" lon="-0.03799">
        <ele>63</ele>
        <time>2021-02-20T11:57:45+01:00</time>
      </trkpt>
      <trkpt lat="47.24463" lon="-0.03816">
        <ele>63</ele>
        <time>2021-02-20T11:57:50+01:00</time>
      </trkpt>
      <trkpt lat="47.24473" lon="-0.03835">
        <ele>63</ele>
        <time>2021-02-20T11:57:55+01:00</time>
      </trkpt>
      <trkpt lat="47.24477" lon="-0.03842">
        <ele>62</ele>
        <time>2021-02-20T11:58:00+01:00</time>
      </trkpt>
      <trkpt lat="47.24483" lon="-0.03858">
        <ele>62</ele>
        <time>2021-02-20T11:58:05+01:00</time>
      </trkpt>
      <trkpt lat="47.24487" lon="-0.03869">
        <ele>61</ele>
        <time>2021-02-20T11:58:10+01:00</time>
      </trkpt>
      <trkpt lat="47.24494" lon="-0.03898">
        <ele>61</ele>
        <time>2021-02-20T11:58:15+01:00</time>
      </trkpt>
      <trkpt lat="47.24495" lon="-0.03918">
        <ele>62</ele>
        <time>2021-02-20T11:58:20+01:00</time>
      </trkpt>
      <trkpt lat="47.24503" lon="-0.03909">
        <ele>60</ele>
        <time>2021-02-20T11:58:25+01:00</time>
      </trkpt>
      <trkpt lat="47.24513" lon="-0.039">
        <ele>57</ele>
        <time>2021-02-20T11:58:30+01:00</time>
      </trkpt>
      <trkpt lat="47.24519" lon="-0.03897">
        <ele>56</ele>
        <time>2021-02-20T11:58:35+01:00</time>
      </trkpt>
      <trkpt lat="47.24525" lon="-0.03899">
        <ele>54</ele>
        <time>2021-02-20T11:58:40+01:00</time>
      </trkpt>
      <trkpt lat="47.24527" lon="-0.03901">
        <ele>54</ele>
        <time>2021-02-20T11:58:45+01:00</time>
      </trkpt>
      <trkpt lat="47.24533" lon="-0.0391">
        <ele>53</ele>
        <time>2021-02-20T11:58:50+01:00</time>
      </trkpt>
      <trkpt lat="47.24539" lon="-0.03919">
        <ele>52</ele>
        <time>2021-02-20T11:58:55+01:00</time>
      </trkpt>
      <trkpt lat="47.24543" lon="-0.03922">
        <ele>51</ele>
        <time>2021-02-20T11:59:00+01:00</time>
      </trkpt>
      <trkpt lat="47.24546" lon="-0.03923">
        <ele>51</ele>
        <time>2021-02-20T11:59:05+01:00</time>
      </trkpt>
      <trkpt lat="47.24548" lon="-0.03922">
        <ele>50</ele>
        <time>2021-02-20T11:59:10+01:00</time>
      </trkpt>
      <trkpt lat="47.2455" lon="-0.03921">
        <ele>49</ele>
        <time>2021-02-20T11:59:15+01:00</time>
      </trkpt>
      <trkpt lat="47.24549" lon="-0.03916">
        <ele>49</ele>
        <time>2021-02-20T11:59:20+01:00</time>
      </trkpt>
      <trkpt lat="47.24549" lon="-0.0391">
        <ele>49</ele>
        <time>2021-02-20T11:59:25+01:00</time>
      </trkpt>
      <trkpt lat="47.24547" lon="-0.03901">
        <ele>49</ele>
        <time>2021-02-20T11:59:30+01:00</time>
      </trkpt>
      <trkpt lat="47.24548" lon="-0.03891">
        <ele>48</ele>
        <time>2021-02-20T11:59:35+01:00</time>
      </trkpt>
      <trkpt lat="47.24554" lon="-0.03888">
        <ele>46</ele>
        <time>2021-02-20T11:59:40+01:00</time>
      </trkpt>
      <trkpt lat="47.24556" lon="-0.03894">
        <ele>46</ele>
        <time>2021-02-20T11:59:45+01:00</time>
      </trkpt>
      <trkpt lat="47.24559" lon="-0.03902">
        <ele>46</ele>
        <time>2021-02-20T11:59:50+01:00</time>
      </trkpt>
      <trkpt lat="47.24563" lon="-0.03908">
        <ele>45</ele>
        <time>2021-02-20T11:59:55+01:00</time>
      </trkpt>
      <trkpt lat="47.24569" lon="-0.03925">
        <ele>45</ele>
        <time>2021-02-20T12:00:00+01:00</time>
      </trkpt>
      <trkpt lat="47.24571" lon="-0.0393">
        <ele>45</ele>
        <time>2021-02-20T12:00:05+01:00</time>
      </trkpt>
      <trkpt lat="47.24574" lon="-0.03941">
        <ele>46</ele>
        <time>2021-02-20T12:00:10+01:00</time>
      </trkpt>
      <trkpt lat="47.24578" lon="-0.03953">
        <ele>46</ele>
        <time>2021-02-20T12:00:15+01:00</time>
      </trkpt>
      <trkpt lat="47.24582" lon="-0.03963">
        <ele>46</ele>
        <time>2021-02-20T12:00:20+01:00</time>
      </trkpt>
      <trkpt lat="47.2459" lon="-0.03984">
        <ele>47</ele>
        <time>2021-02-20T12:00:25+01:00</time>
      </trkpt>
      <trkpt lat="47.24593" lon="-0.03992">
        <ele>47</ele>
        <time>2021-02-20T12:00:30+01:00</time>
      </trkpt>
      <trkpt lat="47.24598" lon="-0.04009">
        <ele>47</ele>
        <time>2021-02-20T12:00:35+01:00</time>
      </trkpt>
      <trkpt lat="47.24602" lon="-0.04021">
        <ele>47</ele>
        <time>2021-02-20T12:00:40+01:00</time>
      </trkpt>
      <trkpt lat="47.24608" lon="-0.04037">
        <ele>47</ele>
        <time>2021-02-20T12:00:45+01:00</time>
      </trkpt>
      <trkpt lat="47.24611" lon="-0.04046">
        <ele>47</ele>
        <time>2021-02-20T12:00:50+01:00</time>
      </trkpt>
      <trkpt lat="47.24615" lon="-0.04056">
        <ele>47</ele>
        <time>2021-02-20T12:00:55+01:00</time>
      </trkpt>
      <trkpt lat="47.24617" lon="-0.0406">
        <ele>46</ele>
        <time>2021-02-20T12:01:00+01:00</time>
      </trkpt>
      <trkpt lat="47.24622" lon="-0.0407">
        <ele>46</ele>
        <time>2021-02-20T12:01:05+01:00</time>
      </trkpt>
      <trkpt lat="47.24623" lon="-0.04079">
        <ele>46</ele>
        <time>2021-02-20T12:01:10+01:00</time>
      </trkpt>
      <trkpt lat="47.24623" lon="-0.0409">
        <ele>47</ele>
        <time>2021-02-20T12:01:15+01:00</time>
      </trkpt>
      <trkpt lat="47.24621" lon="-0.04102">
        <ele>48</ele>
        <time>2021-02-20T12:01:20+01:00</time>
      </trkpt>
      <trkpt lat="47.2462" lon="-0.04115">
        <ele>48</ele>
        <time>2021-02-20T12:01:25+01:00</time>
      </trkpt>
      <trkpt lat="47.2462" lon="-0.04128">
        <ele>49</ele>
        <time>2021-02-20T12:01:30+01:00</time>
      </trkpt>
      <trkpt lat="47.24623" lon="-0.04146">
        <ele>48</ele>
        <time>2021-02-20T12:01:35+01:00</time>
      </trkpt>
      <trkpt lat="47.24624" lon="-0.04156">
        <ele>48</ele>
        <time>2021-02-20T12:01:40+01:00</time>
      </trkpt>
      <trkpt lat="47.24627" lon="-0.04167">
        <ele>48</ele>
        <time>2021-02-20T12:01:45+01:00</time>
      </trkpt>
      <trkpt lat="47.2463" lon="-0.04172">
        <ele>48</ele>
        <time>2021-02-20T12:01:50+01:00</time>
      </trkpt>
      <trkpt lat="47.24636" lon="-0.04183">
        <ele>47</ele>
        <time>2021-02-20T12:01:55+01:00</time>
      </trkpt>
      <trkpt lat="47.24646" lon="-0.042">
        <ele>46</ele>
        <time>2021-02-20T12:02:00+01:00</time>
      </trkpt>
      <trkpt lat="47.24651" lon="-0.04208">
        <ele>45</ele>
        <time>2021-02-20T12:02:05+01:00</time>
      </trkpt>
      <trkpt lat="47.24654" lon="-0.04214">
        <ele>45</ele>
        <time>2021-02-20T12:02:10+01:00</time>
      </trkpt>
      <trkpt lat="47.24656" lon="-0.0422">
        <ele>45</ele>
        <time>2021-02-20T12:02:15+01:00</time>
      </trkpt>
      <trkpt lat="47.2466" lon="-0.04234">
        <ele>45</ele>
        <time>2021-02-20T12:02:20+01:00</time>
      </trkpt>
      <trkpt lat="47.24662" lon="-0.04247">
        <ele>45</ele>
        <time>2021-02-20T12:02:25+01:00</time>
      </trkpt>
      <trkpt lat="47.24664" lon="-0.04261">
        <ele>44</ele>
        <time>2021-02-20T12:02:30+01:00</time>
      </trkpt>
      <trkpt lat="47.24659" lon="-0.04282">
        <ele>46</ele>
        <time>2021-02-20T12:02:35+01:00</time>
      </trkpt>
      <trkpt lat="47.24657" lon="-0.04297">
        <ele>46</ele>
        <time>2021-02-20T12:02:40+01:00</time>
      </trkpt>
      <trkpt lat="47.2464" lon="-0.043">
        <ele>51</ele>
        <time>2021-02-20T12:02:45+01:00</time>
      </trkpt>
      <trkpt lat="47.24621" lon="-0.04312">
        <ele>56</ele>
        <time>2021-02-20T12:02:50+01:00</time>
      </trkpt>
      <trkpt lat="47.24609" lon="-0.04317">
        <ele>60</ele>
        <time>2021-02-20T12:02:55+01:00</time>
      </trkpt>
      <trkpt lat="47.24595" lon="-0.04324">
        <ele>64</ele>
        <time>2021-02-20T12:03:00+01:00</time>
      </trkpt>
      <trkpt lat="47.24584" lon="-0.04331">
        <ele>68</ele>
        <time>2021-02-20T12:03:05+01:00</time>
      </trkpt>
      <trkpt lat="47.24575" lon="-0.04342">
        <ele>69</ele>
        <time>2021-02-20T12:03:10+01:00</time>
      </trkpt>
      <trkpt lat="47.24556" lon="-0.04363">
        <ele>71</ele>
        <time>2021-02-20T12:03:15+01:00</time>
      </trkpt>
      <trkpt lat="47.24556" lon="-0.04365">
        <ele>71</ele>
        <time>2021-02-20T12:03:20+01:00</time>
      </trkpt>
      <trkpt lat="47.24552" lon="-0.0437">
        <ele>72</ele>
        <time>2021-02-20T12:03:25+01:00</time>
      </trkpt>
      <trkpt lat="47.24548" lon="-0.04384">
        <ele>72</ele>
        <time>2021-02-20T12:03:30+01:00</time>
      </trkpt>
      <trkpt lat="47.24546" lon="-0.04395">
        <ele>72</ele>
        <time>2021-02-20T12:03:35+01:00</time>
      </trkpt>
      <trkpt lat="47.24544" lon="-0.04423">
        <ele>72</ele>
        <time>2021-02-20T12:03:40+01:00</time>
      </trkpt>
      <trkpt lat="47.24546" lon="-0.04452">
        <ele>73</ele>
        <time>2021-02-20T12:03:45+01:00</time>
      </trkpt>
      <trkpt lat="47.24548" lon="-0.0446">
        <ele>73</ele>
        <time>2021-02-20T12:03:50+01:00</time>
      </trkpt>
      <trkpt lat="47.24561" lon="-0.045">
        <ele>74</ele>
        <time>2021-02-20T12:03:55+01:00</time>
      </trkpt>
      <trkpt lat="47.24578" lon="-0.04537">
        <ele>75</ele>
        <time>2021-02-20T12:04:00+01:00</time>
      </trkpt>
      <trkpt lat="47.24583" lon="-0.04551">
        <ele>76</ele>
        <time>2021-02-20T12:04:05+01:00</time>
      </trkpt>
      <trkpt lat="47.24587" lon="-0.04594">
        <ele>78</ele>
        <time>2021-02-20T12:04:10+01:00</time>
      </trkpt>
      <trkpt lat="47.24591" lon="-0.046">
        <ele>78</ele>
        <time>2021-02-20T12:04:15+01:00</time>
      </trkpt>
      <trkpt lat="47.246" lon="-0.04614">
        <ele>78</ele>
        <time>2021-02-20T12:04:20+01:00</time>
      </trkpt>
      <trkpt lat="47.2461" lon="-0.04646">
        <ele>79</ele>
        <time>2021-02-20T12:04:25+01:00</time>
      </trkpt>
      <trkpt lat="47.24622" lon="-0.0467">
        <ele>79</ele>
        <time>2021-02-20T12:04:30+01:00</time>
      </trkpt>
      <trkpt lat="47.24637" lon="-0.04691">
        <ele>80</ele>
        <time>2021-02-20T12:04:35+01:00</time>
      </trkpt>
      <trkpt lat="47.24644" lon="-0.04699">
        <ele>80</ele>
        <time>2021-02-20T12:04:40+01:00</time>
      </trkpt>
      <trkpt lat="47.24649" lon="-0.04707">
        <ele>80</ele>
        <time>2021-02-20T12:04:45+01:00</time>
      </trkpt>
      <trkpt lat="47.24652" lon="-0.04712">
        <ele>80</ele>
        <time>2021-02-20T12:04:50+01:00</time>
      </trkpt>
      <trkpt lat="47.24666" lon="-0.04748">
        <ele>82</ele>
        <time>2021-02-20T12:04:55+01:00</time>
      </trkpt>
      <trkpt lat="47.24682" lon="-0.04785">
        <ele>81</ele>
        <time>2021-02-20T12:05:00+01:00</time>
      </trkpt>
      <trkpt lat="47.24685" lon="-0.04792">
        <ele>80</ele>
        <time>2021-02-20T12:05:05+01:00</time>
      </trkpt>
      <trkpt lat="47.24712" lon="-0.04839">
        <ele>78</ele>
        <time>2021-02-20T12:05:10+01:00</time>
      </trkpt>
      <trkpt lat="47.24714" lon="-0.04847">
        <ele>78</ele>
        <time>2021-02-20T12:05:15+01:00</time>
      </trkpt>
      <trkpt lat="47.24718" lon="-0.04863">
        <ele>79</ele>
        <time>2021-02-20T12:05:20+01:00</time>
      </trkpt>
      <trkpt lat="47.2472" lon="-0.04875">
        <ele>80</ele>
        <time>2021-02-20T12:05:25+01:00</time>
      </trkpt>
      <trkpt lat="47.24722" lon="-0.04888">
        <ele>80</ele>
        <time>2021-02-20T12:05:30+01:00</time>
      </trkpt>
      <trkpt lat="47.24723" lon="-0.04894">
        <ele>81</ele>
        <time>2021-02-20T12:05:35+01:00</time>
      </trkpt>
      <trkpt lat="47.24726" lon="-0.049">
        <ele>81</ele>
        <time>2021-02-20T12:05:40+01:00</time>
      </trkpt>
      <trkpt lat="47.24733" lon="-0.04915">
        <ele>82</ele>
        <time>2021-02-20T12:05:45+01:00</time>
      </trkpt>
      <trkpt lat="47.24736" lon="-0.0492">
        <ele>82</ele>
        <time>2021-02-20T12:05:50+01:00</time>
      </trkpt>
      <trkpt lat="47.24739" lon="-0.04927">
        <ele>82</ele>
        <time>2021-02-20T12:05:55+01:00</time>
      </trkpt>
      <trkpt lat="47.24743" lon="-0.04936">
        <ele>82</ele>
        <time>2021-02-20T12:06:00+01:00</time>
      </trkpt>
      <trkpt lat="47.24748" lon="-0.04949">
        <ele>83</ele>
        <time>2021-02-20T12:06:05+01:00</time>
      </trkpt>
      <trkpt lat="47.24754" lon="-0.04965">
        <ele>82</ele>
        <time>2021-02-20T12:06:10+01:00</time>
      </trkpt>
      <trkpt lat="47.24758" lon="-0.04978">
        <ele>82</ele>
        <time>2021-02-20T12:06:15+01:00</time>
      </trkpt>
      <trkpt lat="47.24768" lon="-0.05003">
        <ele>79</ele>
        <time>2021-02-20T12:06:20+01:00</time>
      </trkpt>
      <trkpt lat="47.24775" lon="-0.05017">
        <ele>78</ele>
        <time>2021-02-20T12:06:25+01:00</time>
      </trkpt>
      <trkpt lat="47.24782" lon="-0.05028">
        <ele>76</ele>
        <time>2021-02-20T12:06:30+01:00</time>
      </trkpt>
      <trkpt lat="47.24785" lon="-0.05032">
        <ele>76</ele>
        <time>2021-02-20T12:06:35+01:00</time>
      </trkpt>
      <trkpt lat="47.24794" lon="-0.05042">
        <ele>74</ele>
        <time>2021-02-20T12:06:40+01:00</time>
      </trkpt>
      <trkpt lat="47.24799" lon="-0.05049">
        <ele>73</ele>
        <time>2021-02-20T12:06:45+01:00</time>
      </trkpt>
      <trkpt lat="47.24805" lon="-0.05059">
        <ele>73</ele>
        <time>2021-02-20T12:06:50+01:00</time>
      </trkpt>
      <trkpt lat="47.2481" lon="-0.05069">
        <ele>73</ele>
        <time>2021-02-20T12:06:55+01:00</time>
      </trkpt>
      <trkpt lat="47.24814" lon="-0.05079">
        <ele>74</ele>
        <time>2021-02-20T12:07:00+01:00</time>
      </trkpt>
      <trkpt lat="47.24819" lon="-0.05093">
        <ele>76</ele>
        <time>2021-02-20T12:07:05+01:00</time>
      </trkpt>
      <trkpt lat="47.24824" lon="-0.05112">
        <ele>77</ele>
        <time>2021-02-20T12:07:10+01:00</time>
      </trkpt>
      <trkpt lat="47.24831" lon="-0.05133">
        <ele>80</ele>
        <time>2021-02-20T12:07:15+01:00</time>
      </trkpt>
      <trkpt lat="47.24834" lon="-0.05142">
        <ele>81</ele>
        <time>2021-02-20T12:07:20+01:00</time>
      </trkpt>
      <trkpt lat="47.24837" lon="-0.05153">
        <ele>81</ele>
        <time>2021-02-20T12:07:25+01:00</time>
      </trkpt>
      <trkpt lat="47.24846" lon="-0.05177">
        <ele>81</ele>
        <time>2021-02-20T12:07:30+01:00</time>
      </trkpt>
      <trkpt lat="47.24849" lon="-0.05194">
        <ele>81</ele>
        <time>2021-02-20T12:07:35+01:00</time>
      </trkpt>
      <trkpt lat="47.24846" lon="-0.05204">
        <ele>83</ele>
        <time>2021-02-20T12:07:40+01:00</time>
      </trkpt>
      <trkpt lat="47.24839" lon="-0.05208">
        <ele>86</ele>
        <time>2021-02-20T12:07:45+01:00</time>
      </trkpt>
      <trkpt lat="47.24829" lon="-0.05208">
        <ele>89</ele>
        <time>2021-02-20T12:07:50+01:00</time>
      </trkpt>
      <trkpt lat="47.24821" lon="-0.05208">
        <ele>89</ele>
        <time>2021-02-20T12:07:55+01:00</time>
      </trkpt>
      <trkpt lat="47.24812" lon="-0.05211">
        <ele>90</ele>
        <time>2021-02-20T12:08:00+01:00</time>
      </trkpt>
      <trkpt lat="47.24804" lon="-0.05216">
        <ele>90</ele>
        <time>2021-02-20T12:08:05+01:00</time>
      </trkpt>
      <trkpt lat="47.24791" lon="-0.05223">
        <ele>91</ele>
        <time>2021-02-20T12:08:10+01:00</time>
      </trkpt>
      <trkpt lat="47.24762" lon="-0.05237">
        <ele>93</ele>
        <time>2021-02-20T12:08:15+01:00</time>
      </trkpt>
      <trkpt lat="47.24738" lon="-0.05247">
        <ele>93</ele>
        <time>2021-02-20T12:08:20+01:00</time>
      </trkpt>
      <trkpt lat="47.24721" lon="-0.05256">
        <ele>93</ele>
        <time>2021-02-20T12:08:25+01:00</time>
      </trkpt>
      <trkpt lat="47.24689" lon="-0.05275">
        <ele>92</ele>
        <time>2021-02-20T12:08:30+01:00</time>
      </trkpt>
      <trkpt lat="47.24661" lon="-0.05296">
        <ele>92</ele>
        <time>2021-02-20T12:08:35+01:00</time>
      </trkpt>
      <trkpt lat="47.24656" lon="-0.05301">
        <ele>92</ele>
        <time>2021-02-20T12:08:40+01:00</time>
      </trkpt>
      <trkpt lat="47.24701" lon="-0.05407">
        <ele>92</ele>
        <time>2021-02-20T12:08:45+01:00</time>
      </trkpt>
      <trkpt lat="47.24645" lon="-0.05453">
        <ele>92</ele>
        <time>2021-02-20T12:08:50+01:00</time>
      </trkpt>
      <trkpt lat="47.24569" lon="-0.05513">
        <ele>89</ele>
        <time>2021-02-20T12:08:55+01:00</time>
      </trkpt>
      <trkpt lat="47.2449" lon="-0.05572">
        <ele>86</ele>
        <time>2021-02-20T12:09:00+01:00</time>
      </trkpt>
      <trkpt lat="47.24428" lon="-0.05613">
        <ele>82</ele>
        <time>2021-02-20T12:09:05+01:00</time>
      </trkpt>
      <trkpt lat="47.24392" lon="-0.05632">
        <ele>79</ele>
        <time>2021-02-20T12:09:10+01:00</time>
      </trkpt>
      <trkpt lat="47.24372" lon="-0.05641">
        <ele>77</ele>
        <time>2021-02-20T12:09:15+01:00</time>
      </trkpt>
      <trkpt lat="47.24351" lon="-0.05654">
        <ele>75</ele>
        <time>2021-02-20T12:09:20+01:00</time>
      </trkpt>
      <trkpt lat="47.24338" lon="-0.05669">
        <ele>74</ele>
        <time>2021-02-20T12:09:25+01:00</time>
      </trkpt>
      <trkpt lat="47.24329" lon="-0.05691">
        <ele>73</ele>
        <time>2021-02-20T12:09:30+01:00</time>
      </trkpt>
      <trkpt lat="47.2432" lon="-0.05702">
        <ele>72</ele>
        <time>2021-02-20T12:09:35+01:00</time>
      </trkpt>
      <trkpt lat="47.24305" lon="-0.05717">
        <ele>70</ele>
        <time>2021-02-20T12:09:40+01:00</time>
      </trkpt>
      <trkpt lat="47.24287" lon="-0.05729">
        <ele>68</ele>
        <time>2021-02-20T12:09:45+01:00</time>
      </trkpt>
      <trkpt lat="47.24249" lon="-0.05764">
        <ele>64</ele>
        <time>2021-02-20T12:09:50+01:00</time>
      </trkpt>
      <trkpt lat="47.24252" lon="-0.0579">
        <ele>64</ele>
        <time>2021-02-20T12:09:55+01:00</time>
      </trkpt>
      <trkpt lat="47.24252" lon="-0.05805">
        <ele>63</ele>
        <time>2021-02-20T12:10:00+01:00</time>
      </trkpt>
      <trkpt lat="47.24248" lon="-0.05813">
        <ele>63</ele>
        <time>2021-02-20T12:10:05+01:00</time>
      </trkpt>
      <trkpt lat="47.24244" lon="-0.05816">
        <ele>63</ele>
        <time>2021-02-20T12:10:10+01:00</time>
      </trkpt>
      <trkpt lat="47.24225" lon="-0.05824">
        <ele>64</ele>
        <time>2021-02-20T12:10:15+01:00</time>
      </trkpt>
      <trkpt lat="47.24193" lon="-0.05836">
        <ele>65</ele>
        <time>2021-02-20T12:10:20+01:00</time>
      </trkpt>
      <trkpt lat="47.24144" lon="-0.05857">
        <ele>68</ele>
        <time>2021-02-20T12:10:25+01:00</time>
      </trkpt>
      <trkpt lat="47.24127" lon="-0.05858">
        <ele>69</ele>
        <time>2021-02-20T12:10:30+01:00</time>
      </trkpt>
      <trkpt lat="47.24107" lon="-0.05854">
        <ele>70</ele>
        <time>2021-02-20T12:10:35+01:00</time>
      </trkpt>
      <trkpt lat="47.24091" lon="-0.05849">
        <ele>71</ele>
        <time>2021-02-20T12:10:40+01:00</time>
      </trkpt>
      <trkpt lat="47.24067" lon="-0.05822">
        <ele>71</ele>
        <time>2021-02-20T12:10:45+01:00</time>
      </trkpt>
      <trkpt lat="47.24055" lon="-0.05801">
        <ele>70</ele>
        <time>2021-02-20T12:10:50+01:00</time>
      </trkpt>
      <trkpt lat="47.24038" lon="-0.05768">
        <ele>70</ele>
        <time>2021-02-20T12:10:55+01:00</time>
      </trkpt>
      <trkpt lat="47.23956" lon="-0.05804">
        <ele>72</ele>
        <time>2021-02-20T12:11:00+01:00</time>
      </trkpt>
      <trkpt lat="47.23943" lon="-0.05806">
        <ele>72</ele>
        <time>2021-02-20T12:11:05+01:00</time>
      </trkpt>
      <trkpt lat="47.23931" lon="-0.058">
        <ele>72</ele>
        <time>2021-02-20T12:11:10+01:00</time>
      </trkpt>
      <trkpt lat="47.2392" lon="-0.05788">
        <ele>72</ele>
        <time>2021-02-20T12:11:15+01:00</time>
      </trkpt>
      <trkpt lat="47.23908" lon="-0.05781">
        <ele>72</ele>
        <time>2021-02-20T12:11:20+01:00</time>
      </trkpt>
      <trkpt lat="47.2384" lon="-0.05777">
        <ele>74</ele>
        <time>2021-02-20T12:11:25+01:00</time>
      </trkpt>
      <trkpt lat="47.23809" lon="-0.05771">
        <ele>75</ele>
        <time>2021-02-20T12:11:30+01:00</time>
      </trkpt>
      <trkpt lat="47.23789" lon="-0.05764">
        <ele>75</ele>
        <time>2021-02-20T12:11:35+01:00</time>
      </trkpt>
      <trkpt lat="47.23747" lon="-0.05768">
        <ele>76</ele>
        <time>2021-02-20T12:11:40+01:00</time>
      </trkpt>
      <trkpt lat="47.23735" lon="-0.05767">
        <ele>76</ele>
        <time>2021-02-20T12:11:45+01:00</time>
      </trkpt>
      <trkpt lat="47.23717" lon="-0.05754">
        <ele>76</ele>
        <time>2021-02-20T12:11:50+01:00</time>
      </trkpt>
      <trkpt lat="47.23706" lon="-0.05744">
        <ele>76</ele>
        <time>2021-02-20T12:11:55+01:00</time>
      </trkpt>
      <trkpt lat="47.23682" lon="-0.05732">
        <ele>76</ele>
        <time>2021-02-20T12:12:00+01:00</time>
      </trkpt>
      <trkpt lat="47.23678" lon="-0.05732">
        <ele>76</ele>
        <time>2021-02-20T12:12:05+01:00</time>
      </trkpt>
      <trkpt lat="47.23668" lon="-0.0573">
        <ele>76</ele>
        <time>2021-02-20T12:12:10+01:00</time>
      </trkpt>
      <trkpt lat="47.23638" lon="-0.05723">
        <ele>75</ele>
        <time>2021-02-20T12:12:15+01:00</time>
      </trkpt>
      <trkpt lat="47.23616" lon="-0.05715">
        <ele>75</ele>
        <time>2021-02-20T12:12:20+01:00</time>
      </trkpt>
      <trkpt lat="47.23597" lon="-0.05711">
        <ele>74</ele>
        <time>2021-02-20T12:12:25+01:00</time>
      </trkpt>
      <trkpt lat="47.23581" lon="-0.0571">
        <ele>74</ele>
        <time>2021-02-20T12:12:30+01:00</time>
      </trkpt>
      <trkpt lat="47.23569" lon="-0.05713">
        <ele>74</ele>
        <time>2021-02-20T12:12:35+01:00</time>
      </trkpt>
      <trkpt lat="47.23549" lon="-0.05722">
        <ele>75</ele>
        <time>2021-02-20T12:12:40+01:00</time>
      </trkpt>
      <trkpt lat="47.23493" lon="-0.05739">
        <ele>76</ele>
        <time>2021-02-20T12:12:45+01:00</time>
      </trkpt>
      <trkpt lat="47.23467" lon="-0.05742">
        <ele>76</ele>
        <time>2021-02-20T12:12:50+01:00</time>
      </trkpt>
      <trkpt lat="47.23443" lon="-0.05741">
        <ele>76</ele>
        <time>2021-02-20T12:12:55+01:00</time>
      </trkpt>
      <trkpt lat="47.23407" lon="-0.0574">
        <ele>75</ele>
        <time>2021-02-20T12:13:00+01:00</time>
      </trkpt>
      <trkpt lat="47.2339" lon="-0.05744">
        <ele>73</ele>
        <time>2021-02-20T12:13:05+01:00</time>
      </trkpt>
      <trkpt lat="47.2339" lon="-0.05744">
        <ele>73</ele>
        <time>2021-02-20T12:13:10+01:00</time>
      </trkpt>
      <trkpt lat="47.23363" lon="-0.05752">
        <ele>71</ele>
        <time>2021-02-20T12:13:15+01:00</time>
      </trkpt>
      <trkpt lat="47.23348" lon="-0.0576">
        <ele>70</ele>
        <time>2021-02-20T12:13:20+01:00</time>
      </trkpt>
      <trkpt lat="47.23335" lon="-0.05763">
        <ele>68</ele>
        <time>2021-02-20T12:13:25+01:00</time>
      </trkpt>
      <trkpt lat="47.2331" lon="-0.05764">
        <ele>67</ele>
        <time>2021-02-20T12:13:30+01:00</time>
      </trkpt>
      <trkpt lat="47.23286" lon="-0.05767">
        <ele>66</ele>
        <time>2021-02-20T12:13:35+01:00</time>
      </trkpt>
      <trkpt lat="47.23284" lon="-0.05767">
        <ele>66</ele>
        <time>2021-02-20T12:13:40+01:00</time>
      </trkpt>
      <trkpt lat="47.23294" lon="-0.05715">
        <ele>67</ele>
        <time>2021-02-20T12:13:45+01:00</time>
      </trkpt>
      <trkpt lat="47.23305" lon="-0.05662">
        <ele>67</ele>
        <time>2021-02-20T12:13:50+01:00</time>
      </trkpt>
      <trkpt lat="47.23306" lon="-0.05616">
        <ele>67</ele>
        <time>2021-02-20T12:13:55+01:00</time>
      </trkpt>
      <trkpt lat="47.23304" lon="-0.05534">
        <ele>68</ele>
        <time>2021-02-20T12:14:00+01:00</time>
      </trkpt>
      <trkpt lat="47.23303" lon="-0.0548">
        <ele>68</ele>
        <time>2021-02-20T12:14:05+01:00</time>
      </trkpt>
      <trkpt lat="47.23304" lon="-0.05432">
        <ele>69</ele>
        <time>2021-02-20T12:14:10+01:00</time>
      </trkpt>
      <trkpt lat="47.23305" lon="-0.05411">
        <ele>69</ele>
        <time>2021-02-20T12:14:15+01:00</time>
      </trkpt>
      <trkpt lat="47.23307" lon="-0.0539">
        <ele>69</ele>
        <time>2021-02-20T12:14:20+01:00</time>
      </trkpt>
      <trkpt lat="47.23317" lon="-0.05356">
        <ele>69</ele>
        <time>2021-02-20T12:14:25+01:00</time>
      </trkpt>
      <trkpt lat="47.23325" lon="-0.05332">
        <ele>69</ele>
        <time>2021-02-20T12:14:30+01:00</time>
      </trkpt>
      <trkpt lat="47.23338" lon="-0.05301">
        <ele>69</ele>
        <time>2021-02-20T12:14:35+01:00</time>
      </trkpt>
      <trkpt lat="47.23352" lon="-0.05274">
        <ele>69</ele>
        <time>2021-02-20T12:14:40+01:00</time>
      </trkpt>
      <trkpt lat="47.23354" lon="-0.05266">
        <ele>68</ele>
        <time>2021-02-20T12:14:45+01:00</time>
      </trkpt>
      <trkpt lat="47.23355" lon="-0.05262">
        <ele>68</ele>
        <time>2021-02-20T12:14:50+01:00</time>
      </trkpt>
      <trkpt lat="47.23346" lon="-0.05228">
        <ele>69</ele>
        <time>2021-02-20T12:14:55+01:00</time>
      </trkpt>
      <trkpt lat="47.23345" lon="-0.05226">
        <ele>69</ele>
        <time>2021-02-20T12:15:00+01:00</time>
      </trkpt>
      <trkpt lat="47.2334" lon="-0.05194">
        <ele>69</ele>
        <time>2021-02-20T12:15:05+01:00</time>
      </trkpt>
      <trkpt lat="47.23336" lon="-0.05161">
        <ele>70</ele>
        <time>2021-02-20T12:15:10+01:00</time>
      </trkpt>
      <trkpt lat="47.2333" lon="-0.05121">
        <ele>71</ele>
        <time>2021-02-20T12:15:15+01:00</time>
      </trkpt>
      <trkpt lat="47.23323" lon="-0.05075">
        <ele>71</ele>
        <time>2021-02-20T12:15:20+01:00</time>
      </trkpt>
      <trkpt lat="47.23317" lon="-0.05046">
        <ele>72</ele>
        <time>2021-02-20T12:15:25+01:00</time>
      </trkpt>
      <trkpt lat="47.23303" lon="-0.04981">
        <ele>73</ele>
        <time>2021-02-20T12:15:30+01:00</time>
      </trkpt>
      <trkpt lat="47.23242" lon="-0.05007">
        <ele>73</ele>
        <time>2021-02-20T12:15:35+01:00</time>
      </trkpt>
      <trkpt lat="47.23239" lon="-0.0493">
        <ele>73</ele>
        <time>2021-02-20T12:15:40+01:00</time>
      </trkpt>
      <trkpt lat="47.23273" lon="-0.04863">
        <ele>74</ele>
        <time>2021-02-20T12:15:45+01:00</time>
      </trkpt>
      <trkpt lat="47.23278" lon="-0.04849">
        <ele>74</ele>
        <time>2021-02-20T12:15:50+01:00</time>
      </trkpt>
      <trkpt lat="47.23298" lon="-0.04761">
        <ele>76</ele>
        <time>2021-02-20T12:15:55+01:00</time>
      </trkpt>
      <trkpt lat="47.23306" lon="-0.0472">
        <ele>76</ele>
        <time>2021-02-20T12:16:00+01:00</time>
      </trkpt>
      <trkpt lat="47.23329" lon="-0.04647">
        <ele>78</ele>
        <time>2021-02-20T12:16:05+01:00</time>
      </trkpt>
      <trkpt lat="47.23338" lon="-0.04622">
        <ele>78</ele>
        <time>2021-02-20T12:16:10+01:00</time>
      </trkpt>
      <trkpt lat="47.23346" lon="-0.04604">
        <ele>78</ele>
        <time>2021-02-20T12:16:15+01:00</time>
      </trkpt>
      <trkpt lat="47.23418" lon="-0.04506">
        <ele>81</ele>
        <time>2021-02-20T12:16:20+01:00</time>
      </trkpt>
      <trkpt lat="47.23362" lon="-0.04498">
        <ele>79</ele>
        <time>2021-02-20T12:16:25+01:00</time>
      </trkpt>
      <trkpt lat="47.23339" lon="-0.04496">
        <ele>78</ele>
        <time>2021-02-20T12:16:30+01:00</time>
      </trkpt>
      <trkpt lat="47.2328" lon="-0.04508">
        <ele>77</ele>
        <time>2021-02-20T12:16:35+01:00</time>
      </trkpt>
      <trkpt lat="47.23253" lon="-0.04519">
        <ele>76</ele>
        <time>2021-02-20T12:16:40+01:00</time>
      </trkpt>
      <trkpt lat="47.23229" lon="-0.04531">
        <ele>75</ele>
        <time>2021-02-20T12:16:45+01:00</time>
      </trkpt>
      <trkpt lat="47.23208" lon="-0.04548">
        <ele>74</ele>
        <time>2021-02-20T12:16:50+01:00</time>
      </trkpt>
      <trkpt lat="47.23187" lon="-0.04569">
        <ele>74</ele>
        <time>2021-02-20T12:16:55+01:00</time>
      </trkpt>
      <trkpt lat="47.23168" lon="-0.0458">
        <ele>73</ele>
        <time>2021-02-20T12:17:00+01:00</time>
      </trkpt>
      <trkpt lat="47.23122" lon="-0.04589">
        <ele>72</ele>
        <time>2021-02-20T12:17:05+01:00</time>
      </trkpt>
      <trkpt lat="47.23094" lon="-0.04598">
        <ele>72</ele>
        <time>2021-02-20T12:17:10+01:00</time>
      </trkpt>
      <trkpt lat="47.23063" lon="-0.04612">
        <ele>71</ele>
        <time>2021-02-20T12:17:15+01:00</time>
      </trkpt>
      <trkpt lat="47.23034" lon="-0.04632">
        <ele>70</ele>
        <time>2021-02-20T12:17:20+01:00</time>
      </trkpt>
      <trkpt lat="47.23013" lon="-0.04646">
        <ele>69</ele>
        <time>2021-02-20T12:17:25+01:00</time>
      </trkpt>
      <trkpt lat="47.22992" lon="-0.04659">
        <ele>68</ele>
        <time>2021-02-20T12:17:30+01:00</time>
      </trkpt>
      <trkpt lat="47.22975" lon="-0.04664">
        <ele>66</ele>
        <time>2021-02-20T12:17:35+01:00</time>
      </trkpt>
      <trkpt lat="47.2295" lon="-0.04664">
        <ele>62</ele>
        <time>2021-02-20T12:17:40+01:00</time>
      </trkpt>
      <trkpt lat="47.22941" lon="-0.04665">
        <ele>61</ele>
        <time>2021-02-20T12:17:45+01:00</time>
      </trkpt>
      <trkpt lat="47.22886" lon="-0.04661">
        <ele>56</ele>
        <time>2021-02-20T12:17:50+01:00</time>
      </trkpt>
      <trkpt lat="47.22874" lon="-0.04659">
        <ele>55</ele>
        <time>2021-02-20T12:17:55+01:00</time>
      </trkpt>
      <trkpt lat="47.22859" lon="-0.04659">
        <ele>54</ele>
        <time>2021-02-20T12:18:00+01:00</time>
      </trkpt>
      <trkpt lat="47.22837" lon="-0.04658">
        <ele>53</ele>
        <time>2021-02-20T12:18:05+01:00</time>
      </trkpt>
      <trkpt lat="47.22814" lon="-0.04658">
        <ele>52</ele>
        <time>2021-02-20T12:18:10+01:00</time>
      </trkpt>
      <trkpt lat="47.22768" lon="-0.0463">
        <ele>51</ele>
        <time>2021-02-20T12:18:15+01:00</time>
      </trkpt>
      <trkpt lat="47.22724" lon="-0.04608">
        <ele>50</ele>
        <time>2021-02-20T12:18:20+01:00</time>
      </trkpt>
      <trkpt lat="47.22692" lon="-0.04596">
        <ele>50</ele>
        <time>2021-02-20T12:18:25+01:00</time>
      </trkpt>
      <trkpt lat="47.22706" lon="-0.04562">
        <ele>50</ele>
        <time>2021-02-20T12:18:30+01:00</time>
      </trkpt>
      <trkpt lat="47.22723" lon="-0.04517">
        <ele>51</ele>
        <time>2021-02-20T12:18:35+01:00</time>
      </trkpt>
      <trkpt lat="47.22737" lon="-0.04486">
        <ele>52</ele>
        <time>2021-02-20T12:18:40+01:00</time>
      </trkpt>
      <trkpt lat="47.22714" lon="-0.04441">
        <ele>53</ele>
        <time>2021-02-20T12:18:45+01:00</time>
      </trkpt>
      <trkpt lat="47.22704" lon="-0.04424">
        <ele>54</ele>
        <time>2021-02-20T12:18:50+01:00</time>
      </trkpt>
      <trkpt lat="47.22697" lon="-0.04412">
        <ele>54</ele>
        <time>2021-02-20T12:18:55+01:00</time>
      </trkpt>
      <trkpt lat="47.22688" lon="-0.04395">
        <ele>55</ele>
        <time>2021-02-20T12:19:00+01:00</time>
      </trkpt>
      <trkpt lat="47.22683" lon="-0.04387">
        <ele>56</ele>
        <time>2021-02-20T12:19:05+01:00</time>
      </trkpt>
      <trkpt lat="47.22678" lon="-0.04378">
        <ele>56</ele>
        <time>2021-02-20T12:19:10+01:00</time>
      </trkpt>
      <trkpt lat="47.22672" lon="-0.04366">
        <ele>57</ele>
        <time>2021-02-20T12:19:15+01:00</time>
      </trkpt>
      <trkpt lat="47.22665" lon="-0.04361">
        <ele>57</ele>
        <time>2021-02-20T12:19:20+01:00</time>
      </trkpt>
      <trkpt lat="47.22611" lon="-0.04334">
        <ele>58</ele>
        <time>2021-02-20T12:19:25+01:00</time>
      </trkpt>
      <trkpt lat="47.22596" lon="-0.04327">
        <ele>58</ele>
        <time>2021-02-20T12:19:30+01:00</time>
      </trkpt>
      <trkpt lat="47.22587" lon="-0.04298">
        <ele>61</ele>
        <time>2021-02-20T12:19:35+01:00</time>
      </trkpt>
      <trkpt lat="47.2255" lon="-0.04297">
        <ele>59</ele>
        <time>2021-02-20T12:19:40+01:00</time>
      </trkpt>
      <trkpt lat="47.22496" lon="-0.04295">
        <ele>55</ele>
        <time>2021-02-20T12:19:45+01:00</time>
      </trkpt>
      <trkpt lat="47.22465" lon="-0.04298">
        <ele>54</ele>
        <time>2021-02-20T12:19:50+01:00</time>
      </trkpt>
      <trkpt lat="47.22463" lon="-0.04292">
        <ele>54</ele>
        <time>2021-02-20T12:19:55+01:00</time>
      </trkpt>
      <trkpt lat="47.22459" lon="-0.04279">
        <ele>54</ele>
        <time>2021-02-20T12:20:00+01:00</time>
      </trkpt>
      <trkpt lat="47.22449" lon="-0.04241">
        <ele>53</ele>
        <time>2021-02-20T12:20:05+01:00</time>
      </trkpt>
      <trkpt lat="47.22442" lon="-0.04215">
        <ele>55</ele>
        <time>2021-02-20T12:20:10+01:00</time>
      </trkpt>
      <trkpt lat="47.22439" lon="-0.04196">
        <ele>56</ele>
        <time>2021-02-20T12:20:15+01:00</time>
      </trkpt>
      <trkpt lat="47.22437" lon="-0.04172">
        <ele>57</ele>
        <time>2021-02-20T12:20:20+01:00</time>
      </trkpt>
      <trkpt lat="47.22436" lon="-0.04151">
        <ele>58</ele>
        <time>2021-02-20T12:20:25+01:00</time>
      </trkpt>
      <trkpt lat="47.22439" lon="-0.04135">
        <ele>60</ele>
        <time>2021-02-20T12:20:30+01:00</time>
      </trkpt>
      <trkpt lat="47.22443" lon="-0.04115">
        <ele>62</ele>
        <time>2021-02-20T12:20:35+01:00</time>
      </trkpt>
      <trkpt lat="47.22452" lon="-0.04083">
        <ele>65</ele>
        <time>2021-02-20T12:20:40+01:00</time>
      </trkpt>
      <trkpt lat="47.2245" lon="-0.04073">
        <ele>66</ele>
        <time>2021-02-20T12:20:45+01:00</time>
      </trkpt>
      <trkpt lat="47.22444" lon="-0.0407">
        <ele>65</ele>
        <time>2021-02-20T12:20:50+01:00</time>
      </trkpt>
      <trkpt lat="47.22439" lon="-0.04067">
        <ele>65</ele>
        <time>2021-02-20T12:20:55+01:00</time>
      </trkpt>
      <trkpt lat="47.22416" lon="-0.04063">
        <ele>64</ele>
        <time>2021-02-20T12:21:00+01:00</time>
      </trkpt>
      <trkpt lat="47.22402" lon="-0.04059">
        <ele>64</ele>
        <time>2021-02-20T12:21:05+01:00</time>
      </trkpt>
      <trkpt lat="47.2239" lon="-0.04054">
        <ele>64</ele>
        <time>2021-02-20T12:21:10+01:00</time>
      </trkpt>
      <trkpt lat="47.22376" lon="-0.04051">
        <ele>63</ele>
        <time>2021-02-20T12:21:15+01:00</time>
      </trkpt>
      <trkpt lat="47.22368" lon="-0.04046">
        <ele>63</ele>
        <time>2021-02-20T12:21:20+01:00</time>
      </trkpt>
      <trkpt lat="47.22363" lon="-0.04038">
        <ele>63</ele>
        <time>2021-02-20T12:21:25+01:00</time>
      </trkpt>
      <trkpt lat="47.22359" lon="-0.04028">
        <ele>64</ele>
        <time>2021-02-20T12:21:30+01:00</time>
      </trkpt>
      <trkpt lat="47.22354" lon="-0.04015">
        <ele>64</ele>
        <time>2021-02-20T12:21:35+01:00</time>
      </trkpt>
      <trkpt lat="47.22348" lon="-0.03991">
        <ele>65</ele>
        <time>2021-02-20T12:21:40+01:00</time>
      </trkpt>
      <trkpt lat="47.22344" lon="-0.03974">
        <ele>65</ele>
        <time>2021-02-20T12:21:45+01:00</time>
      </trkpt>
      <trkpt lat="47.22342" lon="-0.03958">
        <ele>65</ele>
        <time>2021-02-20T12:21:50+01:00</time>
      </trkpt>
      <trkpt lat="47.22339" lon="-0.03944">
        <ele>65</ele>
        <time>2021-02-20T12:21:55+01:00</time>
      </trkpt>
      <trkpt lat="47.22333" lon="-0.03906">
        <ele>65</ele>
        <time>2021-02-20T12:22:00+01:00</time>
      </trkpt>
      <trkpt lat="47.22322" lon="-0.03855">
        <ele>63</ele>
        <time>2021-02-20T12:22:05+01:00</time>
      </trkpt>
      <trkpt lat="47.2232" lon="-0.03822">
        <ele>63</ele>
        <time>2021-02-20T12:22:10+01:00</time>
      </trkpt>
      <trkpt lat="47.22317" lon="-0.03787">
        <ele>64</ele>
        <time>2021-02-20T12:22:15+01:00</time>
      </trkpt>
      <trkpt lat="47.22318" lon="-0.03754">
        <ele>66</ele>
        <time>2021-02-20T12:22:20+01:00</time>
      </trkpt>
      <trkpt lat="47.22318" lon="-0.03727">
        <ele>66</ele>
        <time>2021-02-20T12:22:25+01:00</time>
      </trkpt>
      <trkpt lat="47.22322" lon="-0.03693">
        <ele>66</ele>
        <time>2021-02-20T12:22:30+01:00</time>
      </trkpt>
      <trkpt lat="47.22329" lon="-0.03656">
        <ele>66</ele>
        <time>2021-02-20T12:22:35+01:00</time>
      </trkpt>
      <trkpt lat="47.22337" lon="-0.03633">
        <ele>66</ele>
        <time>2021-02-20T12:22:40+01:00</time>
      </trkpt>
      <trkpt lat="47.22358" lon="-0.03585">
        <ele>66</ele>
        <time>2021-02-20T12:22:45+01:00</time>
      </trkpt>
      <trkpt lat="47.22377" lon="-0.03542">
        <ele>67</ele>
        <time>2021-02-20T12:22:50+01:00</time>
      </trkpt>
      <trkpt lat="47.22394" lon="-0.03528">
        <ele>68</ele>
        <time>2021-02-20T12:22:55+01:00</time>
      </trkpt>
      <trkpt lat="47.22411" lon="-0.03511">
        <ele>68</ele>
        <time>2021-02-20T12:23:00+01:00</time>
      </trkpt>
      <trkpt lat="47.22425" lon="-0.03489">
        <ele>68</ele>
        <time>2021-02-20T12:23:05+01:00</time>
      </trkpt>
      <trkpt lat="47.22442" lon="-0.0345">
        <ele>69</ele>
        <time>2021-02-20T12:23:10+01:00</time>
      </trkpt>
      <trkpt lat="47.22467" lon="-0.03421">
        <ele>71</ele>
        <time>2021-02-20T12:23:15+01:00</time>
      </trkpt>
      <trkpt lat="47.22476" lon="-0.03408">
        <ele>72</ele>
        <time>2021-02-20T12:23:20+01:00</time>
      </trkpt>
      <trkpt lat="47.22483" lon="-0.03389">
        <ele>73</ele>
        <time>2021-02-20T12:23:25+01:00</time>
      </trkpt>
      <trkpt lat="47.22487" lon="-0.03359">
        <ele>73</ele>
        <time>2021-02-20T12:23:30+01:00</time>
      </trkpt>
      <trkpt lat="47.2249" lon="-0.03346">
        <ele>73</ele>
        <time>2021-02-20T12:23:35+01:00</time>
      </trkpt>
      <trkpt lat="47.22496" lon="-0.03337">
        <ele>74</ele>
        <time>2021-02-20T12:23:40+01:00</time>
      </trkpt>
      <trkpt lat="47.22512" lon="-0.03331">
        <ele>75</ele>
        <time>2021-02-20T12:23:45+01:00</time>
      </trkpt>
      <trkpt lat="47.22527" lon="-0.03317">
        <ele>75</ele>
        <time>2021-02-20T12:23:50+01:00</time>
      </trkpt>
      <trkpt lat="47.22553" lon="-0.03282">
        <ele>76</ele>
        <time>2021-02-20T12:23:55+01:00</time>
      </trkpt>
      <trkpt lat="47.22563" lon="-0.03267">
        <ele>75</ele>
        <time>2021-02-20T12:24:00+01:00</time>
      </trkpt>
      <trkpt lat="47.22591" lon="-0.03142">
        <ele>76</ele>
        <time>2021-02-20T12:24:05+01:00</time>
      </trkpt>
      <trkpt lat="47.22601" lon="-0.03125">
        <ele>78</ele>
        <time>2021-02-20T12:24:10+01:00</time>
      </trkpt>
      <trkpt lat="47.2264" lon="-0.03101">
        <ele>80</ele>
        <time>2021-02-20T12:24:15+01:00</time>
      </trkpt>
      <trkpt lat="47.22645" lon="-0.03093">
        <ele>80</ele>
        <time>2021-02-20T12:24:20+01:00</time>
      </trkpt>
      <trkpt lat="47.22647" lon="-0.03063">
        <ele>80</ele>
        <time>2021-02-20T12:24:25+01:00</time>
      </trkpt>
      <trkpt lat="47.22645" lon="-0.02989">
        <ele>79</ele>
        <time>2021-02-20T12:24:30+01:00</time>
      </trkpt>
      <trkpt lat="47.22654" lon="-0.02925">
        <ele>77</ele>
        <time>2021-02-20T12:24:35+01:00</time>
      </trkpt>
      <trkpt lat="47.22666" lon="-0.02857">
        <ele>78</ele>
        <time>2021-02-20T12:24:40+01:00</time>
      </trkpt>
      <trkpt lat="47.22669" lon="-0.02829">
        <ele>79</ele>
        <time>2021-02-20T12:24:45+01:00</time>
      </trkpt>
      <trkpt lat="47.22673" lon="-0.02807">
        <ele>81</ele>
        <time>2021-02-20T12:24:50+01:00</time>
      </trkpt>
      <trkpt lat="47.22688" lon="-0.02799">
        <ele>83</ele>
        <time>2021-02-20T12:24:55+01:00</time>
      </trkpt>
      <trkpt lat="47.22726" lon="-0.02796">
        <ele>84</ele>
        <time>2021-02-20T12:25:00+01:00</time>
      </trkpt>
      <trkpt lat="47.22822" lon="-0.028">
        <ele>87</ele>
        <time>2021-02-20T12:25:05+01:00</time>
      </trkpt>
      <trkpt lat="47.22871" lon="-0.02797">
        <ele>85</ele>
        <time>2021-02-20T12:25:10+01:00</time>
      </trkpt>
      <trkpt lat="47.22898" lon="-0.02837">
        <ele>85</ele>
        <time>2021-02-20T12:25:15+01:00</time>
      </trkpt>
      <trkpt lat="47.22945" lon="-0.02886">
        <ele>84</ele>
        <time>2021-02-20T12:25:20+01:00</time>
      </trkpt>
      <trkpt lat="47.22966" lon="-0.02907">
        <ele>84</ele>
        <time>2021-02-20T12:25:25+01:00</time>
      </trkpt>
      <trkpt lat="47.22999" lon="-0.02931">
        <ele>83</ele>
        <time>2021-02-20T12:25:30+01:00</time>
      </trkpt>
      <trkpt lat="47.23051" lon="-0.02967">
        <ele>83</ele>
        <time>2021-02-20T12:25:35+01:00</time>
      </trkpt>
      <trkpt lat="47.23085" lon="-0.02982">
        <ele>82</ele>
        <time>2021-02-20T12:25:40+01:00</time>
      </trkpt>
      <trkpt lat="47.2314" lon="-0.02995">
        <ele>82</ele>
        <time>2021-02-20T12:25:45+01:00</time>
      </trkpt>
      <trkpt lat="47.23213" lon="-0.03019">
        <ele>83</ele>
        <time>2021-02-20T12:25:50+01:00</time>
      </trkpt>
      <trkpt lat="47.23238" lon="-0.03026">
        <ele>84</ele>
        <time>2021-02-20T12:25:55+01:00</time>
      </trkpt>
      <trkpt lat="47.2326" lon="-0.03032">
        <ele>84</ele>
        <time>2021-02-20T12:26:00+01:00</time>
      </trkpt>
      <trkpt lat="47.23285" lon="-0.03038">
        <ele>84</ele>
        <time>2021-02-20T12:26:05+01:00</time>
      </trkpt>
      <trkpt lat="47.23322" lon="-0.03027">
        <ele>84</ele>
        <time>2021-02-20T12:26:10+01:00</time>
      </trkpt>
      <trkpt lat="47.23334" lon="-0.03032">
        <ele>84</ele>
        <time>2021-02-20T12:26:15+01:00</time>
      </trkpt>
      <trkpt lat="47.23349" lon="-0.03034">
        <ele>84</ele>
        <time>2021-02-20T12:26:20+01:00</time>
      </trkpt>
      <trkpt lat="47.23359" lon="-0.03037">
        <ele>84</ele>
        <time>2021-02-20T12:26:25+01:00</time>
      </trkpt>
      <trkpt lat="47.23379" lon="-0.03042">
        <ele>84</ele>
        <time>2021-02-20T12:26:30+01:00</time>
      </trkpt>
      <trkpt lat="47.23412" lon="-0.0305">
        <ele>84</ele>
        <time>2021-02-20T12:26:35+01:00</time>
      </trkpt>
      <trkpt lat="47.23435" lon="-0.03052">
        <ele>84</ele>
        <time>2021-02-20T12:26:40+01:00</time>
      </trkpt>
      <trkpt lat="47.23453" lon="-0.03052">
        <ele>83</ele>
        <time>2021-02-20T12:26:45+01:00</time>
      </trkpt>
      <trkpt lat="47.23468" lon="-0.03055">
        <ele>83</ele>
        <time>2021-02-20T12:26:50+01:00</time>
      </trkpt>
      <trkpt lat="47.2347" lon="-0.03066">
        <ele>83</ele>
        <time>2021-02-20T12:26:55+01:00</time>
      </trkpt>
      <trkpt lat="47.23472" lon="-0.03076">
        <ele>83</ele>
        <time>2021-02-20T12:27:00+01:00</time>
      </trkpt>
      <trkpt lat="47.23475" lon="-0.03083">
        <ele>83</ele>
        <time>2021-02-20T12:27:05+01:00</time>
      </trkpt>
      <trkpt lat="47.23541" lon="-0.03091">
        <ele>84</ele>
        <time>2021-02-20T12:27:10+01:00</time>
      </trkpt>
      <trkpt lat="47.23644" lon="-0.03106">
        <ele>82</ele>
        <time>2021-02-20T12:27:15+01:00</time>
      </trkpt>
      <trkpt lat="47.2366" lon="-0.03106">
        <ele>82</ele>
        <time>2021-02-20T12:27:20+01:00</time>
      </trkpt>
      <trkpt lat="47.23672" lon="-0.03104">
        <ele>82</ele>
        <time>2021-02-20T12:27:25+01:00</time>
      </trkpt>
      <trkpt lat="47.23686" lon="-0.03099">
        <ele>82</ele>
        <time>2021-02-20T12:27:30+01:00</time>
      </trkpt>
      <trkpt lat="47.23696" lon="-0.03095">
        <ele>82</ele>
        <time>2021-02-20T12:27:35+01:00</time>
      </trkpt>
      <trkpt lat="47.23707" lon="-0.03088">
        <ele>82</ele>
        <time>2021-02-20T12:27:40+01:00</time>
      </trkpt>
      <trkpt lat="47.23718" lon="-0.03078">
        <ele>82</ele>
        <time>2021-02-20T12:27:45+01:00</time>
      </trkpt>
      <trkpt lat="47.23736" lon="-0.03057">
        <ele>82</ele>
        <time>2021-02-20T12:27:50+01:00</time>
      </trkpt>
      <trkpt lat="47.23755" lon="-0.03029">
        <ele>82</ele>
        <time>2021-02-20T12:27:55+01:00</time>
      </trkpt>
      <trkpt lat="47.23768" lon="-0.03014">
        <ele>83</ele>
        <time>2021-02-20T12:28:00+01:00</time>
      </trkpt>
      <trkpt lat="47.23784" lon="-0.03">
        <ele>84</ele>
        <time>2021-02-20T12:28:05+01:00</time>
      </trkpt>
      <trkpt lat="47.23789" lon="-0.02992">
        <ele>84</ele>
        <time>2021-02-20T12:28:10+01:00</time>
      </trkpt>
      <trkpt lat="47.23814" lon="-0.02945">
        <ele>84</ele>
        <time>2021-02-20T12:28:15+01:00</time>
      </trkpt>
      <trkpt lat="47.2382" lon="-0.02937">
        <ele>84</ele>
        <time>2021-02-20T12:28:20+01:00</time>
      </trkpt>
      <trkpt lat="47.2383" lon="-0.02929">
        <ele>84</ele>
        <time>2021-02-20T12:28:25+01:00</time>
      </trkpt>
      <trkpt lat="47.23868" lon="-0.02905">
        <ele>84</ele>
        <time>2021-02-20T12:28:30+01:00</time>
      </trkpt>
      <trkpt lat="47.23899" lon="-0.02878">
        <ele>84</ele>
        <time>2021-02-20T12:28:35+01:00</time>
      </trkpt>
      <trkpt lat="47.23896" lon="-0.02871">
        <ele>84</ele>
        <time>2021-02-20T12:28:40+01:00</time>
      </trkpt>
      <trkpt lat="47.23892" lon="-0.02859">
        <ele>84</ele>
        <time>2021-02-20T12:28:45+01:00</time>
      </trkpt>
      <trkpt lat="47.2389" lon="-0.02849">
        <ele>83</ele>
        <time>2021-02-20T12:28:50+01:00</time>
      </trkpt>
      <trkpt lat="47.2389" lon="-0.02833">
        <ele>83</ele>
        <time>2021-02-20T12:28:55+01:00</time>
      </trkpt>
      <trkpt lat="47.23893" lon="-0.02816">
        <ele>82</ele>
        <time>2021-02-20T12:29:00+01:00</time>
      </trkpt>
      <trkpt lat="47.23895" lon="-0.02798">
        <ele>82</ele>
        <time>2021-02-20T12:29:05+01:00</time>
      </trkpt>
      <trkpt lat="47.23895" lon="-0.02771">
        <ele>81</ele>
        <time>2021-02-20T12:29:10+01:00</time>
      </trkpt>
      <trkpt lat="47.239" lon="-0.0276">
        <ele>80</ele>
        <time>2021-02-20T12:29:15+01:00</time>
      </trkpt>
      <trkpt lat="47.23962" lon="-0.02707">
        <ele>72</ele>
        <time>2021-02-20T12:29:20+01:00</time>
      </trkpt>
      <trkpt lat="47.23977" lon="-0.02694">
        <ele>70</ele>
        <time>2021-02-20T12:29:25+01:00</time>
      </trkpt>
      <trkpt lat="47.23984" lon="-0.02693">
        <ele>69</ele>
        <time>2021-02-20T12:29:30+01:00</time>
      </trkpt>
      <trkpt lat="47.23997" lon="-0.02683">
        <ele>67</ele>
        <time>2021-02-20T12:29:35+01:00</time>
      </trkpt>
      <trkpt lat="47.24004" lon="-0.02661">
        <ele>65</ele>
        <time>2021-02-20T12:29:40+01:00</time>
      </trkpt>
      <trkpt lat="47.24041" lon="-0.02624">
        <ele>60</ele>
        <time>2021-02-20T12:29:45+01:00</time>
      </trkpt>
      <trkpt lat="47.2411" lon="-0.02562">
        <ele>49</ele>
        <time>2021-02-20T12:29:50+01:00</time>
      </trkpt>
      <trkpt lat="47.2411" lon="-0.02553">
        <ele>48</ele>
        <time>2021-02-20T12:29:55+01:00</time>
      </trkpt>
      <trkpt lat="47.24103" lon="-0.02526">
        <ele>48</ele>
        <time>2021-02-20T12:30:00+01:00</time>
      </trkpt>
      <trkpt lat="47.24096" lon="-0.02496">
        <ele>47</ele>
        <time>2021-02-20T12:30:05+01:00</time>
      </trkpt>
      <trkpt lat="47.2408" lon="-0.02461">
        <ele>46</ele>
        <time>2021-02-20T12:30:10+01:00</time>
      </trkpt>
      <trkpt lat="47.2407" lon="-0.02442">
        <ele>45</ele>
        <time>2021-02-20T12:30:15+01:00</time>
      </trkpt>
      <trkpt lat="47.24062" lon="-0.02433">
        <ele>45</ele>
        <time>2021-02-20T12:30:20+01:00</time>
      </trkpt>
      <trkpt lat="47.24066" lon="-0.02427">
        <ele>44</ele>
        <time>2021-02-20T12:30:25+01:00</time>
      </trkpt>
      <trkpt lat="47.24082" lon="-0.02402">
        <ele>41</ele>
        <time>2021-02-20T12:30:30+01:00</time>
      </trkpt>
      <trkpt lat="47.24086" lon="-0.02403">
        <ele>41</ele>
        <time>2021-02-20T12:30:35+01:00</time>
      </trkpt>
      <trkpt lat="47.24093" lon="-0.02413">
        <ele>41</ele>
        <time>2021-02-20T12:30:40+01:00</time>
      </trkpt>
      <trkpt lat="47.24097" lon="-0.02417">
        <ele>40</ele>
        <time>2021-02-20T12:30:45+01:00</time>
      </trkpt>
      <trkpt lat="47.24105" lon="-0.02425">
        <ele>40</ele>
        <time>2021-02-20T12:30:50+01:00</time>
      </trkpt>
      <trkpt lat="47.24108" lon="-0.02426">
        <ele>40</ele>
        <time>2021-02-20T12:30:55+01:00</time>
      </trkpt>
      <trkpt lat="47.24113" lon="-0.02424">
        <ele>39</ele>
        <time>2021-02-20T12:31:00+01:00</time>
      </trkpt>
      <trkpt lat="47.2412" lon="-0.02419">
        <ele>38</ele>
        <time>2021-02-20T12:31:05+01:00</time>
      </trkpt>
      <trkpt lat="47.24089" lon="-0.02341">
        <ele>35</ele>
        <time>2021-02-20T12:31:10+01:00</time>
      </trkpt>
      <trkpt lat="47.24079" lon="-0.02292">
        <ele>34</ele>
        <time>2021-02-20T12:31:15+01:00</time>
      </trkpt>
      <trkpt lat="47.24075" lon="-0.02258">
        <ele>33</ele>
        <time>2021-02-20T12:31:20+01:00</time>
      </trkpt>
      <trkpt lat="47.24104" lon="-0.02258">
        <ele>32</ele>
        <time>2021-02-20T12:31:25+01:00</time>
      </trkpt>
      <trkpt lat="47.24108" lon="-0.02275">
        <ele>32</ele>
        <time>2021-02-20T12:31:30+01:00</time>
      </trkpt>
    </trkseg>
  </trk>
</gpx>